Time;durP1;ratioP1;P1;durP2;ratioP2;P2;SDS_P1;SDS_P2;PMS_P1;PMS_P2;Temp;Humidity;BMP_temperature;BMP_pressure;BME280_temperature;BME280_humidity;BME280_pressure;Samples;Min_cycle;Max_cycle;Signal;HPM_P1;HPM_P2
2023/06/22 00:00:53;;;;;;;;;5.80;5.40;;;;;-143.57;100.00;65101.44;5077994;28;45414;-44
2023/06/22 00:03:20;;;;;;;;;7.20;5.60;;;;;-143.57;100.00;65101.44;5078185;28;45242;-42
2023/06/22 00:05:47;;;;;;;;;3.60;3.60;;;;;-143.57;100.00;65101.44;5078071;28;45509;-43
2023/06/22 00:08:12;;;;;;;;;5.60;4.80;;;;;-143.57;100.00;65101.44;5077618;28;45298;-43
2023/06/22 00:10:38;;;;;;;;;5.75;4.50;;;;;-143.57;100.00;65101.44;5077865;28;45475;-41
2023/06/22 00:13:04;;;;;;;;;5.50;4.75;;;;;-143.57;100.00;65101.44;5077594;28;46010;-42
2023/06/22 00:15:29;;;;;;;;;8.50;4.25;;;;;-143.57;100.00;65101.44;5078068;28;45266;-43
2023/06/22 00:17:56;;;;;;;;;5.00;3.50;;;;;-143.57;100.00;65101.44;5077495;28;45967;-44
2023/06/22 00:20:22;;;;;;;;;5.20;4.40;;;;;-143.57;100.00;65101.44;5077077;28;45247;-43
2023/06/22 00:22:48;;;;;;;;;5.25;4.75;;;;;-143.57;100.00;65101.44;5077604;28;45297;-43
2023/06/22 00:25:13;;;;;;;;;4.00;4.00;;;;;-143.57;100.00;65101.44;5077704;28;45295;-41
2023/06/22 00:27:39;;;;;;;;;3.25;3.25;;;;;-143.57;100.00;65101.44;5037157;27;1148129;-42
2023/06/22 00:30:05;;;;;;;;;5.75;5.00;;;;;-143.57;100.00;65101.44;5078537;28;45326;-43
2023/06/22 00:32:30;;;;;;;;;5.25;5.00;;;;;-143.57;100.00;65101.44;5078476;28;45279;-42
2023/06/22 00:34:55;;;;;;;;;6.25;5.00;;;;;-143.57;100.00;65101.44;5078625;28;45254;-43
2023/06/22 00:37:25;;;;;;;;;3.50;3.50;;;;;-143.57;100.00;65101.44;5078598;28;46288;-43
2023/06/22 00:39:51;;;;;;;;;5.20;3.60;;;;;-143.57;100.00;65101.44;5078209;28;45455;-41
2023/06/22 00:42:16;;;;;;;;;5.20;3.40;;;;;-143.57;100.00;65101.44;5078270;28;45388;-43
2023/06/22 00:44:42;;;;;;;;;6.00;6.00;;;;;-143.57;100.00;65101.44;5078534;28;45538;-42
2023/06/22 00:47:07;;;;;;;;;15.25;14.75;;;;;-143.57;100.00;65101.44;5077350;28;45355;-42
2023/06/22 00:49:33;;;;;;;;;9.50;8.00;;;;;-143.57;100.00;65101.44;5078135;28;45293;-46
2023/06/22 00:51:58;;;;;;;;;12.75;10.50;;;;;-143.57;100.00;65101.44;5078286;28;45205;-43
2023/06/22 00:54:24;;;;;;;;;5.75;5.75;;;;;-143.57;100.00;65101.44;5078491;28;45298;-42
2023/06/22 00:56:57;;;;;;;;;11.40;9.40;;;;;-143.57;100.00;65101.44;5077864;28;45353;-41
2023/06/22 00:59:24;;;;;;;;;4.20;4.20;;;;;-143.57;100.00;65101.44;5078144;28;45354;-43
2023/06/22 01:01:49;;;;;;;;;37.00;30.75;;;;;-143.57;100.00;65101.44;5078149;28;45213;-42
2023/06/22 01:04:15;;;;;;;;;6.75;6.75;;;;;-143.57;100.00;65101.44;5078333;28;45298;-41
2023/06/22 01:07:04;;;;;;;;;7.50;6.00;;;;;-143.57;100.00;65101.44;5077978;28;45339;-43
2023/06/22 01:09:35;;;;;;;;;6.60;5.40;;;;;-143.57;100.00;65101.44;5077897;28;45431;-43
2023/06/22 01:12:03;;;;;;;;;22.00;21.00;;;;;-143.57;100.00;65101.44;5077702;28;45523;-42
2023/06/22 01:14:43;;;;;;;;;20.25;17.75;;;;;-143.57;100.00;65101.44;5076209;28;45611;-42
2023/06/22 01:17:12;;;;;;;;;6.00;4.40;;;;;-143.57;100.00;65101.44;5077659;28;45302;-41
2023/06/22 01:19:57;;;;;;;;;7.00;6.20;;;;;-143.57;100.00;65101.44;5077723;28;45396;-43
2023/06/22 01:22:28;;;;;;;;;6.40;4.80;;;;;-143.57;100.00;65101.44;5077805;28;45507;-41
2023/06/22 01:25:36;;;;;;;;;5.25;5.00;;;;;-143.57;100.00;65101.44;5078099;28;45368;-42
2023/06/22 01:28:19;;;;;;;;;6.20;5.00;;;;;-143.57;100.00;65101.44;5074171;27;68087;-42
2023/06/22 01:30:48;;;;;;;;;6.60;4.20;;;;;-143.57;100.00;65101.44;5098019;27;45314;-42
2023/06/22 01:33:15;;;;;;;;;5.60;5.60;;;;;-143.57;100.00;65101.44;5098193;27;45376;-41
2023/06/22 01:35:41;;;;;;;;;6.00;5.00;;;;;-143.57;100.00;65101.44;5098389;27;45218;-43
2023/06/22 01:38:08;;;;;;;;;6.00;5.00;;;;;-143.57;100.00;65101.44;5097882;27;45742;-43
2023/06/22 01:40:34;;;;;;;;;4.40;4.40;;;;;-143.57;100.00;65101.44;5098084;27;45191;-43
2023/06/22 01:43:01;;;;;;;;;4.20;4.20;;;;;-143.57;100.00;65101.44;5097946;27;45364;-43
2023/06/22 01:45:27;;;;;;;;;7.00;5.80;;;;;-143.57;100.00;65101.44;5098209;27;45451;-44
2023/06/22 01:47:54;;;;;;;;;7.60;4.40;;;;;-143.57;100.00;65101.44;5097892;27;45458;-43
2023/06/22 01:50:19;;;;;;;;;6.00;6.00;;;;;-143.57;100.00;65101.44;5097172;27;45364;-45
2023/06/22 01:52:45;;;;;;;;;4.75;3.50;;;;;-143.57;100.00;65101.44;5097848;27;45434;-42
2023/06/22 01:55:10;;;;;;;;;5.75;4.75;;;;;-143.57;100.00;65101.44;5097974;27;45350;-43
2023/06/22 01:57:36;;;;;;;;;5.00;5.00;;;;;-143.57;100.00;65101.44;5097194;27;46559;-44
2023/06/22 02:00:14;;;;;;;;;5.25;5.25;;;;;-143.57;100.00;65101.44;5097727;27;45350;-43
2023/06/22 02:02:46;;;;;;;;;5.20;5.20;;;;;-143.57;100.00;65101.44;5096412;27;45541;-43
2023/06/22 02:05:17;;;;;;;;;5.25;4.25;;;;;-143.57;100.00;65101.44;5079625;27;45258;-43
2023/06/22 02:07:52;;;;;;;;;5.00;5.00;;;;;-143.57;100.00;65101.44;5097464;27;47169;-42
2023/06/22 02:10:20;;;;;;;;;9.20;5.60;;;;;-143.57;100.00;65101.44;5097698;27;45281;-43
2023/06/22 02:12:47;;;;;;;;;4.20;4.20;;;;;-143.57;100.00;65101.44;5097619;27;45525;-44
2023/06/22 02:15:14;;;;;;;;;5.00;5.00;;;;;-143.57;100.00;65101.44;5097891;27;45240;-43
2023/06/22 02:17:44;;;;;;;;;9.00;5.00;;;;;-143.57;100.00;65101.44;5097596;27;45436;-42
2023/06/22 02:20:13;;;;;;;;;4.40;4.40;;;;;-143.57;100.00;65101.44;5097547;27;45312;-42
2023/06/22 02:22:38;;;;;;;;;8.20;6.60;;;;;-143.57;100.00;65101.44;5097598;27;45435;-41
2023/06/22 02:25:04;;;;;;;;;6.25;5.75;;;;;-143.57;100.00;65101.44;5097843;27;45337;-43
2023/06/22 02:27:29;;;;;;;;;5.50;5.25;;;;;-143.57;100.00;65101.44;5078637;27;46176;-42
2023/06/22 02:29:54;;;;;;;;;5.00;5.00;;;;;-143.57;100.00;65101.44;5097431;27;49745;-44
2023/06/22 02:32:20;;;;;;;;;7.00;6.50;;;;;-143.57;100.00;65101.44;5097429;27;45482;-43
2023/06/22 02:34:47;;;;;;;;;7.25;7.00;;;;;-143.57;100.00;65101.44;5097601;27;45216;-43
2023/06/22 02:37:15;;;;;;;;;5.40;5.40;;;;;-143.57;100.00;65101.44;5097190;27;46353;-43
2023/06/22 02:39:41;;;;;;;;;9.00;6.80;;;;;-143.57;100.00;65101.44;5097218;27;45353;-42
2023/06/22 02:42:06;;;;;;;;;5.75;5.75;;;;;-143.57;100.00;65101.44;5097382;27;45284;-42
2023/06/22 02:44:32;;;;;;;;;8.25;6.50;;;;;-143.57;100.00;65101.44;5097334;27;45225;-42
2023/06/22 02:46:58;;;;;;;;;5.00;4.50;;;;;-143.57;100.00;65101.44;5096829;27;46864;-45
2023/06/22 02:49:24;;;;;;;;;6.60;5.80;;;;;-143.57;100.00;65101.44;5097049;27;45296;-41
2023/06/22 02:51:49;;;;;;;;;6.25;5.50;;;;;-143.57;100.00;65101.44;5097101;27;45351;-42
2023/06/22 02:54:16;;;;;;;;;7.50;5.50;;;;;-143.57;100.00;65101.44;5097238;27;45398;-42
2023/06/22 02:56:43;;;;;;;;;7.60;7.00;;;;;-143.57;100.00;65101.44;5096732;27;47220;-41
2023/06/22 02:59:10;;;;;;;;;5.20;5.20;;;;;-143.57;100.00;65101.44;5096920;27;45234;-42
2023/06/22 03:01:39;;;;;;;;;8.00;4.00;;;;;-143.57;100.00;65101.44;5097185;27;45384;-43
2023/06/22 03:04:05;;;;;;;;;6.00;4.50;;;;;-143.57;100.00;65101.44;5097216;27;45384;-41
2023/06/22 03:06:30;;;;;;;;;5.00;5.00;;;;;-143.57;100.00;65101.44;5096589;27;45548;-43
2023/06/22 03:09:00;;;;;;;;;5.00;5.00;;;;;-143.57;100.00;65101.44;5096830;27;45321;-41
2023/06/22 03:11:26;;;;;;;;;7.00;4.20;;;;;-143.57;100.00;65101.44;5099214;27;45373;-41
2023/06/22 03:13:52;;;;;;;;;7.00;6.00;;;;;-143.57;100.00;65101.44;5099520;27;45593;-41
2023/06/22 03:16:18;;;;;;;;;5.60;5.40;;;;;-143.57;100.00;65101.44;5100089;27;46328;-41
2023/06/22 03:18:44;;;;;;;;;3.75;3.75;;;;;-143.57;100.00;65101.44;5100134;27;45350;-41
2023/06/22 03:21:09;;;;;;;;;5.00;5.00;;;;;-143.57;100.00;65101.44;5100341;27;45185;-43
2023/06/22 03:23:35;;;;;;;;;8.75;5.50;;;;;-143.57;100.00;65101.44;5100391;27;45304;-41
2023/06/22 03:26:01;;;;;;;;;7.50;4.50;;;;;-143.57;100.00;65101.44;5099935;27;46416;-42
2023/06/22 03:28:26;;;;;;;;;6.50;5.00;;;;;-143.57;100.00;65101.44;5099792;27;45407;-42
2023/06/22 03:30:51;;;;;;;;;6.00;6.00;;;;;-143.57;100.00;65101.44;5100156;27;45403;-41
2023/06/22 03:33:17;;;;;;;;;9.00;7.50;;;;;-143.57;100.00;65101.44;5102965;27;45402;-42
2023/06/22 03:35:42;;;;;;;;;7.25;5.50;;;;;-143.57;100.00;65101.44;5103494;27;48495;-42
2023/06/22 03:38:07;;;;;;;;;6.75;6.00;;;;;-143.57;100.00;65101.44;5104048;27;45369;-43
2023/06/22 03:40:33;;;;;;;;;6.25;5.00;;;;;-143.57;100.00;65101.44;5103390;27;45370;-43
2023/06/22 03:42:58;;;;;;;;;5.50;5.00;;;;;-143.57;100.00;65101.44;5101879;27;45301;-43
2023/06/22 03:45:23;;;;;;;;;4.00;4.00;;;;;-143.57;100.00;65101.44;5100204;27;53116;-43
2023/06/22 03:47:49;;;;;;;;;5.50;5.00;;;;;-143.57;100.00;65101.44;5099659;27;47366;-45
2023/06/22 03:50:14;;;;;;;;;4.25;4.25;;;;;-143.57;100.00;65101.44;5100440;27;45456;-44
2023/06/22 03:52:40;;;;;;;;;7.25;6.25;;;;;-143.57;100.00;65101.44;5100283;27;45308;-46
2023/06/22 03:55:06;;;;;;;;;5.25;5.00;;;;;-143.57;100.00;65101.44;5100483;27;46146;-45
2023/06/22 03:57:32;;;;;;;;;7.00;5.60;;;;;-143.57;100.00;65101.44;5099854;27;45391;-45
2023/06/22 03:59:58;;;;;;;;;6.75;6.25;;;;;-143.57;100.00;65101.44;5099889;27;45467;-49
2023/06/22 04:02:23;;;;;;;;;9.75;7.50;;;;;-143.57;100.00;65101.44;5100079;27;45416;-43
2023/06/22 04:04:48;;;;;;;;;6.00;5.50;;;;;-143.57;100.00;65101.44;5099827;27;45291;-42
2023/06/22 04:07:14;;;;;;;;;6.25;5.00;;;;;-143.57;100.00;65101.44;5099426;27;45416;-42
2023/06/22 04:09:39;;;;;;;;;7.00;5.00;;;;;-143.57;100.00;65101.44;5099786;27;45594;-43
2023/06/22 04:12:05;;;;;;;;;6.00;6.00;;;;;-143.57;100.00;65101.44;5099563;27;45430;-41
2023/06/22 04:14:30;;;;;;;;;6.50;6.00;;;;;-143.57;100.00;65101.44;5099225;27;46042;-43
2023/06/22 04:16:55;;;;;;;;;8.75;8.00;;;;;-143.57;100.00;65101.44;5099297;27;45367;-41
2023/06/22 04:19:21;;;;;;;;;6.50;5.50;;;;;-143.57;100.00;65101.44;5099441;27;45592;-43
2023/06/22 04:21:48;;;;;;;;;8.75;6.50;;;;;-143.57;100.00;65101.44;5098322;27;45475;-41
2023/06/22 04:24:13;;;;;;;;;9.50;6.75;;;;;-143.57;100.00;65101.44;5098445;27;46813;-42
2023/06/22 04:26:41;;;;;;;;;7.25;6.25;;;;;-143.57;100.00;65101.44;5098200;27;45439;-42
2023/06/22 04:29:08;;;;;;;;;8.00;6.80;;;;;-143.57;100.00;65101.44;5099068;27;45287;-42
2023/06/22 04:31:36;;;;;;;;;7.00;5.50;;;;;-143.57;100.00;65101.44;5098199;27;45336;-43
2023/06/22 04:34:06;;;;;;;;;6.25;6.25;;;;;-143.57;100.00;65101.44;5097336;27;46234;-42
2023/06/22 04:36:40;;;;;;;;;10.00;7.00;;;;;-143.57;100.00;65101.44;5099130;27;45322;-41
2023/06/22 04:39:11;;;;;;;;;6.00;6.00;;;;;-143.57;100.00;65101.44;5098734;27;45334;-42
2023/06/22 04:41:43;;;;;;;;;8.75;5.00;;;;;-143.57;100.00;65101.44;5099121;27;45409;-43
2023/06/22 04:44:12;;;;;;;;;9.50;8.25;;;;;-143.57;100.00;65101.44;5098586;27;47044;-42
2023/06/22 04:46:40;;;;;;;;;6.60;6.60;;;;;-143.57;100.00;65101.44;5098074;27;45332;-43
2023/06/22 04:49:11;;;;;;;;;10.20;8.20;;;;;-143.57;100.00;65101.44;5098921;27;45352;-43
2023/06/22 04:51:41;;;;;;;;;9.75;6.50;;;;;-143.57;100.00;65101.44;5098895;27;45435;-43
2023/06/22 04:54:07;;;;;;;;;8.00;8.00;;;;;-143.57;100.00;65101.44;5097884;27;45269;-43
2023/06/22 04:56:33;;;;;;;;;7.20;6.20;;;;;-143.57;100.00;65101.44;5098797;27;45382;-41
2023/06/22 04:58:59;;;;;;;;;8.00;6.75;;;;;-143.57;100.00;65101.44;5098847;27;45284;-42
2023/06/22 05:01:25;;;;;;;;;8.50;8.25;;;;;-143.57;100.00;65101.44;5099216;27;45386;-43
2023/06/22 05:03:51;;;;;;;;;8.50;6.75;;;;;-143.57;100.00;65101.44;5098378;27;45419;-42
2023/06/22 05:06:17;;;;;;;;;9.25;8.00;;;;;-143.57;100.00;65101.44;5098402;27;45797;-42
2023/06/22 05:08:43;;;;;;;;;6.00;6.00;;;;;-143.57;100.00;65101.44;5098964;27;45451;-43
2023/06/22 05:11:09;;;;;;;;;10.25;8.75;;;;;-143.57;100.00;65101.44;5098335;27;46063;-43
2023/06/22 05:13:34;;;;;;;;;9.25;7.75;;;;;-143.57;100.00;65101.44;5098268;27;46863;-42
2023/06/22 05:16:02;;;;;;;;;10.00;9.00;;;;;-143.57;100.00;65101.44;5098542;27;45354;-42
2023/06/22 05:18:29;;;;;;;;;10.00;6.50;;;;;-143.57;100.00;65101.44;5098393;27;45254;-42
2023/06/22 05:20:54;;;;;;;;;8.00;8.00;;;;;-143.57;100.00;65101.44;5098411;27;45432;-42
2023/06/22 05:23:20;;;;;;;;;10.00;9.00;;;;;-143.57;100.00;65101.44;5098930;27;45177;-44
2023/06/22 05:25:45;;;;;;;;;9.50;7.25;;;;;-143.57;100.00;65101.44;5098296;27;45356;-43
2023/06/22 05:28:11;;;;;;;;;13.00;10.00;;;;;-143.57;100.00;65101.44;5100395;27;45651;-43
2023/06/22 05:30:37;;;;;;;;;8.00;8.00;;;;;-143.57;100.00;65101.44;5084229;27;45765;-43
2023/06/22 05:33:02;;;;;;;;;7.50;7.50;;;;;-143.57;100.00;65101.44;5098974;27;46649;-41
2023/06/22 05:35:28;;;;;;;;;10.25;7.25;;;;;-143.57;100.00;65101.44;5100277;27;45339;-42
2023/06/22 05:37:53;;;;;;;;;14.00;10.00;;;;;-143.57;100.00;65101.44;5100526;27;45467;-41
2023/06/22 05:40:18;;;;;;;;;12.75;11.75;;;;;-143.57;100.00;65101.44;5099951;27;45383;-41
2023/06/22 05:42:44;;;;;;;;;16.00;11.50;;;;;-143.57;100.00;65101.44;5099613;27;46164;-44
2023/06/22 05:45:09;;;;;;;;;12.00;10.00;;;;;-143.57;100.00;65101.44;5098488;27;45327;-43
2023/06/22 05:47:35;;;;;;;;;9.50;9.00;;;;;-143.57;100.00;65101.44;5098158;27;45330;-43
2023/06/22 05:50:00;;;;;;;;;8.75;8.75;;;;;-143.57;100.00;65101.44;5097782;27;45301;-43
2023/06/22 05:52:25;;;;;;;;;10.00;10.00;;;;;-143.57;100.00;65101.44;5097740;27;46088;-44
2023/06/22 05:54:51;;;;;;;;;15.00;12.00;;;;;-143.57;100.00;65101.44;5097857;27;48622;-43
2023/06/22 05:57:16;;;;;;;;;20.25;16.00;;;;;-143.57;100.00;65101.44;5097732;27;45356;-47
2023/06/22 05:59:41;;;;;;;;;42.00;32.33;;;;;-143.57;100.00;65101.44;5098015;27;45291;-46
2023/06/22 06:02:07;;;;;;;;;31.00;23.67;;;;;-143.57;100.00;65101.44;5079359;27;46186;-45
2023/06/22 06:04:32;;;;;;;;;34.67;27.33;;;;;-143.57;100.00;65101.44;5097822;27;45381;-44
2023/06/22 06:06:57;;;;;;;;;23.25;18.00;;;;;-143.57;100.00;65101.44;5097799;27;45183;-43
2023/06/22 06:09:23;;;;;;;;;21.75;17.75;;;;;-143.57;100.00;65101.44;5097974;27;45387;-44
2023/06/22 06:11:48;;;;;;;;;18.75;15.50;;;;;-143.57;100.00;65101.44;5097180;27;45283;-44
2023/06/22 06:14:13;;;;;;;;;17.50;15.50;;;;;-143.57;100.00;65101.44;5097166;27;45317;-44
2023/06/22 06:16:39;;;;;;;;;22.50;17.00;;;;;-143.57;100.00;65101.44;5097578;27;45374;-46
2023/06/22 06:19:04;;;;;;;;;14.50;13.75;;;;;-143.57;100.00;65101.44;5097658;27;45227;-45
2023/06/22 06:21:29;;;;;;;;;16.25;13.50;;;;;-143.57;100.00;65101.44;5097426;27;46100;-44
2023/06/22 06:23:55;;;;;;;;;18.50;15.00;;;;;-143.57;100.00;65101.44;5097659;27;45267;-46
2023/06/22 06:26:27;;;;;;;;;23.25;19.00;;;;;-143.57;100.00;65101.44;5097395;27;45337;-43
2023/06/22 06:28:54;;;;;;;;;16.50;14.50;;;;;-143.57;100.00;65101.44;5097373;27;45407;-45
2023/06/22 06:31:20;;;;;;;;;18.50;15.50;;;;;-143.57;100.00;65101.44;5096191;27;47222;-45
2023/06/22 06:33:46;;;;;;;;;24.75;17.25;;;;;-143.57;100.00;65101.44;5096136;27;45272;-43
2023/06/22 06:36:11;;;;;;;;;15.25;15.25;;;;;-143.57;100.00;65101.44;5097461;27;45249;-46
2023/06/22 06:38:36;;;;;;;;;21.00;18.75;;;;;-143.57;100.00;65101.44;5097420;27;45159;-46
2023/06/22 06:41:02;;;;;;;;;21.25;17.25;;;;;-143.57;100.00;65101.44;5097008;27;48561;-43
2023/06/22 06:43:27;;;;;;;;;21.75;14.00;;;;;-143.57;100.00;65101.44;5078425;27;45507;-44
2023/06/22 06:45:52;;;;;;;;;18.25;15.00;;;;;-143.57;100.00;65101.44;5099692;27;45240;-46
2023/06/22 06:48:18;;;;;;;;;16.00;15.25;;;;;-143.57;100.00;65101.44;5101171;27;45339;-46
2023/06/22 06:50:43;;;;;;;;;21.75;17.25;;;;;-143.57;100.00;65101.44;5100742;27;46152;-45
2023/06/22 06:53:09;;;;;;;;;18.25;16.50;;;;;-143.57;100.00;65101.44;5100676;27;45418;-46
2023/06/22 06:55:35;;;;;;;;;19.75;17.50;;;;;-143.57;100.00;65101.44;5098740;27;45366;-49
2023/06/22 06:58:01;;;;;;;;;18.25;17.25;;;;;-143.57;100.00;65101.44;5100799;27;45383;-44
2023/06/22 07:00:26;;;;;;;;;22.75;22.25;;;;;-143.57;100.00;65101.44;5100467;27;46264;-43
2023/06/22 07:02:52;;;;;;;;;25.75;23.50;;;;;-143.57;100.00;65101.44;5100415;27;45225;-44
2023/06/22 07:05:18;;;;;;;;;22.25;18.25;;;;;-143.57;100.00;65101.44;5100742;27;45194;-48
2023/06/22 07:07:43;;;;;;;;;17.75;17.00;;;;;-143.57;100.00;65101.44;5100642;27;45356;-47
2023/06/22 07:10:10;;;;;;;;;26.50;22.25;;;;;-143.57;100.00;65101.44;5100380;27;46432;-44
2023/06/22 07:12:35;;;;;;;;;20.50;20.00;;;;;-143.57;100.00;65101.44;5100262;27;45278;-48
2023/06/22 07:15:03;;;;;;;;;24.25;19.75;;;;;-143.57;100.00;65101.44;5100293;27;45227;-43
2023/06/22 07:17:29;;;;;;;;;18.75;18.25;;;;;-143.57;100.00;65101.44;5100525;27;45382;-43
2023/06/22 07:19:54;;;;;;;;;18.75;16.25;;;;;-143.57;100.00;65101.44;5100129;27;46961;-48
2023/06/22 07:22:19;;;;;;;;;25.25;22.25;;;;;-143.57;100.00;65101.44;5100202;27;45406;-46
2023/06/22 07:24:45;;;;;;;;;25.00;19.00;;;;;-143.57;100.00;65101.44;5099791;27;45900;-47
2023/06/22 07:27:12;;;;;;;;;23.75;17.75;;;;;-143.57;100.00;65101.44;5100404;27;45458;-47
2023/06/22 07:29:39;;;;;;;;;21.75;19.00;;;;;-143.57;100.00;65101.44;5100025;27;46398;-45
2023/06/22 07:32:05;;;;;;;;;23.75;22.25;;;;;-143.57;100.00;65101.44;5099826;27;45406;-44
2023/06/22 07:34:30;;;;;;;;;27.00;26.00;;;;;-143.57;100.00;65101.44;5100185;27;45285;-44
2023/06/22 07:36:56;;;;;;;;;22.50;20.00;;;;;-143.57;100.00;65101.44;5100330;27;45380;-45
2023/06/22 07:39:25;;;;;;;;;24.33;21.00;;;;;-143.57;100.00;65101.44;5083686;27;45376;-48
2023/06/22 07:41:51;;;;;;;;;24.00;23.00;;;;;-143.57;100.00;65101.44;5055330;28;46555;-46
2023/06/22 07:44:16;;;;;;;;;26.33;24.00;;;;;-143.57;100.00;65101.44;5067436;28;45453;-45
2023/06/22 07:46:42;;;;;;;;;26.25;20.00;;;;;-143.57;100.00;65101.44;5072425;28;45264;-45
2023/06/22 07:49:08;;;;;;;;;30.33;23.67;;;;;-143.57;100.00;65101.44;5065743;28;46040;-44
2023/06/22 07:51:33;;;;;;;;;23.67;19.67;;;;;-143.57;100.00;65101.44;5062768;28;45432;-48
2023/06/22 07:53:59;;;;;;;;;34.33;25.33;;;;;-143.57;100.00;65101.44;5056692;28;45525;-46
2023/06/22 07:56:24;;;;;;;;;32.00;26.67;;;;;-143.57;100.00;65101.44;5071805;28;45848;-49
2023/06/22 07:58:49;;;;;;;;;34.00;30.00;;;;;-143.57;100.00;65101.44;5075665;28;46306;-49
2023/06/22 08:01:15;;;;;;;;;32.67;30.33;;;;;-143.57;100.00;65101.44;5075564;28;45401;-45
2023/06/22 08:03:40;;;;;;;;;28.67;25.33;;;;;-143.57;100.00;65101.44;5069215;28;45466;-46
2023/06/22 08:06:08;;;;;;;;;29.00;26.33;;;;;-143.57;100.00;65101.44;5075039;28;45568;-47
2023/06/22 08:08:34;;;;;;;;;26.00;23.00;;;;;-143.57;100.00;65101.44;5069248;28;47115;-46
2023/06/22 08:10:59;;;;;;;;;29.67;22.33;;;;;-143.57;100.00;65101.44;5070329;28;45432;-46
2023/06/22 08:13:25;;;;;;;;;24.50;24.25;;;;;-143.57;100.00;65101.44;5074352;28;45464;-48
2023/06/22 08:15:50;;;;;;;;;25.67;22.67;;;;;-143.57;100.00;65101.44;5068348;28;45397;-48
2023/06/22 08:18:16;;;;;;;;;24.33;23.33;;;;;-143.57;100.00;65101.44;5073634;28;46285;-47
2023/06/22 08:20:41;;;;;;;;;25.33;19.67;;;;;-143.57;100.00;65101.44;5069032;28;45495;-51
2023/06/22 08:23:07;;;;;;;;;24.67;21.67;;;;;-143.57;100.00;65101.44;5074827;28;45495;-46
2023/06/22 08:25:33;;;;;;;;;27.25;20.25;;;;;-143.57;100.00;65101.44;5071073;28;45423;-45
2023/06/22 08:27:59;;;;;;;;;23.75;21.50;;;;;-143.57;100.00;65101.44;5089804;27;46183;-45
2023/06/22 08:30:24;;;;;;;;;27.75;19.75;;;;;-143.57;100.00;65101.44;5095195;27;45397;-52
2023/06/22 08:32:50;;;;;;;;;25.00;21.50;;;;;-143.57;100.00;65101.44;5095110;27;45280;-45
2023/06/22 08:35:15;;;;;;;;;27.00;19.00;;;;;-143.57;100.00;65101.44;5095467;27;45538;-48
2023/06/22 08:37:40;;;;;;;;;25.75;21.25;;;;;-143.57;100.00;65101.44;5094720;27;45693;-50
2023/06/22 08:40:09;;;;;;;;;25.50;20.75;;;;;-143.57;100.00;65101.44;5093739;27;45438;-46
2023/06/22 08:42:34;;;;;;;;;29.50;24.25;;;;;-143.57;100.00;65101.44;5095248;27;45588;-47
2023/06/22 08:45:00;;;;;;;;;22.50;19.00;;;;;-143.57;100.00;65101.44;5094198;27;45415;-48
2023/06/22 08:47:27;;;;;;;;;24.25;22.50;;;;;-143.57;100.00;65101.44;5094779;27;47306;-48
2023/06/22 08:49:52;;;;;;;;;27.33;25.33;;;;;-143.57;100.00;65101.44;5094493;27;45545;-49
2023/06/22 08:52:19;;;;;;;;;28.75;24.00;;;;;-143.57;100.00;65101.44;5094841;27;45521;-45
2023/06/22 08:54:45;;;;;;;;;51.33;39.67;;;;;-143.57;100.00;65101.44;5095325;27;45640;-46
2023/06/22 08:57:10;;;;;;;;;41.33;32.67;;;;;-143.57;100.00;65101.44;5093886;27;46190;-46
2023/06/22 08:59:36;;;;;;;;;30.50;26.25;;;;;-143.57;100.00;65101.44;5094896;27;45510;-43
2023/06/22 09:02:01;;;;;;;;;26.00;21.25;;;;;-143.57;100.00;65101.44;5094513;27;45382;-46
2023/06/22 09:04:26;;;;;;;;;32.75;24.50;;;;;-143.57;100.00;65101.44;5094918;27;45506;-46
2023/06/22 09:06:52;;;;;;;;;26.25;21.75;;;;;-143.57;100.00;65101.44;5094103;27;46236;-45
2023/06/22 09:09:18;;;;;;;;;26.75;23.00;;;;;-143.57;100.00;65101.44;5075632;27;45539;-48
2023/06/22 09:11:43;;;;;;;;;25.00;20.50;;;;;-143.57;100.00;65101.44;5094542;27;46826;-46
2023/06/22 09:14:09;;;;;;;;;20.00;20.00;;;;;-143.57;100.00;65101.44;5095197;27;45377;-47
2023/06/22 09:16:35;;;;;;;;;28.25;24.75;;;;;-143.57;100.00;65101.44;5093735;27;45633;-48
2023/06/22 09:19:00;;;;;;;;;24.50;20.50;;;;;-143.57;100.00;65101.44;5094400;27;45501;-45
2023/06/22 09:21:26;;;;;;;;;22.50;20.25;;;;;-143.57;100.00;65101.44;5094261;27;45553;-46
2023/06/22 09:23:51;;;;;;;;;13.50;12.50;;;;;-143.57;100.00;65101.44;5095896;27;45414;-45
2023/06/22 09:26:18;;;;;;;;;27.75;23.75;;;;;-143.57;100.00;65101.44;5093037;27;46353;-47
2023/06/22 09:28:43;;;;;;;;;20.25;19.25;;;;;-143.57;100.00;65101.44;5093844;27;45433;-44
2023/06/22 09:31:08;;;;;;;;;22.50;20.50;;;;;-143.57;100.00;65101.44;5094316;27;45758;-45
2023/06/22 09:33:35;;;;;;;;;23.00;19.00;;;;;-143.57;100.00;65101.44;5093841;27;45667;-45
2023/06/22 09:36:00;;;;;;;;;22.75;18.50;;;;;-143.57;100.00;65101.44;5094368;27;46201;-46
2023/06/22 09:38:26;;;;;;;;;25.00;19.50;;;;;-143.57;100.00;65101.44;5094566;27;45441;-45
2023/06/22 09:40:51;;;;;;;;;21.75;16.75;;;;;-143.57;100.00;65101.44;5093166;27;45746;-48
2023/06/22 09:43:17;;;;;;;;;22.50;20.00;;;;;-143.57;100.00;65101.44;5094618;27;45521;-47
2023/06/22 09:45:42;;;;;;;;;16.75;14.75;;;;;-143.57;100.00;65101.44;5092727;27;45460;-46
2023/06/22 09:48:09;;;;;;;;;24.25;18.25;;;;;-143.57;100.00;65101.44;5093727;27;45676;-46
2023/06/22 09:50:35;;;;;;;;;19.50;16.75;;;;;-143.57;100.00;65101.44;5093692;27;45546;-48
2023/06/22 09:53:00;;;;;;;;;21.25;19.25;;;;;-143.57;100.00;65101.44;5094035;27;45784;-48
2023/06/22 09:55:25;;;;;;;;;22.25;21.25;;;;;-143.57;100.00;65101.44;5093614;27;46261;-46
2023/06/22 09:57:51;;;;;;;;;18.25;16.75;;;;;-143.57;100.00;65101.44;5093800;27;45456;-43
2023/06/22 10:00:18;;;;;;;;;20.75;20.25;;;;;-143.57;100.00;65101.44;5093006;27;45453;-46
2023/06/22 10:02:44;;;;;;;;;23.00;20.00;;;;;-143.57;100.00;65101.44;5093642;27;45520;-45
2023/06/22 10:05:10;;;;;;;;;17.75;17.75;;;;;-143.57;100.00;65101.44;5076712;27;47226;-44
2023/06/22 10:07:39;;;;;;;;;19.25;18.00;;;;;-143.57;100.00;65101.44;5095639;27;45553;-44
2023/06/22 10:10:06;;;;;;;;;18.50;14.75;;;;;-143.57;100.00;65101.44;5096036;27;45435;-43
2023/06/22 10:12:31;;;;;;;;;20.00;18.75;;;;;-143.57;100.00;65101.44;5094331;27;45471;-44
2023/06/22 10:14:56;;;;;;;;;19.25;17.75;;;;;-143.57;100.00;65101.44;5094260;27;46960;-47
2023/06/22 10:17:22;;;;;;;;;19.25;16.75;;;;;-143.57;100.00;65101.44;5095045;27;45583;-48
2023/06/22 10:19:47;;;;;;;;;18.25;16.50;;;;;-143.57;100.00;65101.44;5098416;27;45724;-44
2023/06/22 10:22:12;;;;;;;;;17.25;15.50;;;;;-143.57;100.00;65101.44;5099061;27;45451;-43
2023/06/22 10:24:44;;;;;;;;;15.50;15.50;;;;;-143.57;100.00;65101.44;5098844;27;49448;-44
2023/06/22 10:27:09;;;;;;;;;17.40;15.80;;;;;-143.57;100.00;65101.44;5098899;27;45387;-42
2023/06/22 10:29:35;;;;;;;;;17.25;16.25;;;;;-143.57;100.00;65101.44;5099605;27;45437;-46
2023/06/22 10:32:00;;;;;;;;;9.00;8.25;;;;;-143.57;100.00;65101.44;5099090;27;45624;-43
2023/06/22 10:34:25;;;;;;;;;14.50;12.75;;;;;-143.57;100.00;65101.44;5099439;27;46285;-44
2023/06/22 10:36:51;;;;;;;;;14.00;14.00;;;;;-143.57;100.00;65101.44;5098580;27;45525;-44
2023/06/22 10:39:16;;;;;;;;;14.75;14.50;;;;;-143.57;100.00;65101.44;5099316;27;45287;-45
2023/06/22 10:41:41;;;;;;;;;12.00;12.00;;;;;-143.57;100.00;65101.44;5099467;27;45488;-44
2023/06/22 10:44:07;;;;;;;;;14.25;14.00;;;;;-143.57;100.00;65101.44;5098379;27;46101;-43
2023/06/22 10:46:32;;;;;;;;;16.00;12.25;;;;;-143.57;100.00;65101.44;5098872;27;45392;-44
2023/06/22 10:48:58;;;;;;;;;14.00;12.00;;;;;-143.57;100.00;65101.44;5098987;27;45448;-47
2023/06/22 10:51:25;;;;;;;;;15.80;11.00;;;;;-143.57;100.00;65101.44;5098806;27;45437;-44
2023/06/22 10:53:50;;;;;;;;;10.00;10.00;;;;;-143.57;100.00;65101.44;5099098;27;46202;-45
2023/06/22 10:56:17;;;;;;;;;12.50;10.50;;;;;-143.57;100.00;65101.44;5098662;27;45376;-46
2023/06/22 10:58:43;;;;;;;;;11.00;9.60;;;;;-143.57;100.00;65101.44;5099379;27;45443;-43